Time;durP1;ratioP1;P1;durP2;ratioP2;P2;SDS_P1;SDS_P2;PMS_P1;PMS_P2;Temp;Humidity;BMP_temperature;BMP_pressure;BME280_temperature;BME280_humidity;BME280_pressure;Samples;Min_cycle;Max_cycle;Signal;HPM_P1;HPM_P2
2023/10/04 00:02:21;;;;;;;4.88;1.75;;;16.00;65.80;;;;;;4987023;28;20476;-49
2023/10/04 00:05:13;;;;;;;2.50;1.42;;;16.00;65.90;;;;;;4983249;28;20449;-49
2023/10/04 00:07:48;;;;;;;7.15;1.75;;;16.00;66.00;;;;;;4989417;28;20089;-51
2023/10/04 00:10:24;;;;;;;5.15;2.17;;;16.00;66.10;;;;;;4981644;28;20050;-52
2023/10/04 00:12:55;;;;;;;5.95;1.88;;;16.00;66.10;;;;;;4987671;28;20400;-48
2023/10/04 00:15:48;;;;;;;4.85;1.60;;;16.00;66.40;;;;;;4990328;28;20053;-50
2023/10/04 00:18:43;;;;;;;5.63;1.80;;;16.00;66.30;;;;;;4980379;28;20484;-52
2023/10/04 00:21:30;;;;;;;2.97;1.50;;;15.90;66.30;;;;;;4989333;28;20121;-50
2023/10/04 00:24:09;;;;;;;4.72;1.70;;;15.90;66.50;;;;;;4987210;28;20038;-49
2023/10/04 00:26:49;;;;;;;3.15;1.83;;;15.90;66.60;;;;;;4986615;28;20065;-52
2023/10/04 00:29:35;;;;;;;5.05;1.95;;;15.90;66.60;;;;;;4981398;28;20054;-51
2023/10/04 00:32:36;;;;;;;7.65;1.75;;;15.90;66.90;;;;;;4978887;28;20424;-52
2023/10/04 00:35:17;;;;;;;2.60;1.73;;;15.90;66.90;;;;;;4988371;28;20097;-51
2023/10/04 00:37:55;;;;;;;14.98;2.67;;;15.80;66.90;;;;;;4989263;28;20053;-50
2023/10/04 00:40:33;;;;;;;3.45;1.95;;;15.90;67.10;;;;;;4986318;28;20049;-51
2023/10/04 00:43:28;;;;;;;3.78;1.85;;;15.90;67.10;;;;;;4980688;28;20060;-53
2023/10/04 00:46:17;;;;;;;;;;;15.80;67.10;;;;;;4986328;28;20042;-50
2023/10/04 00:49:03;;;;;;;6.75;1.65;;;15.90;67.10;;;;;;4993558;28;19922;-52
2023/10/04 00:51:36;;;;;;;4.82;2.45;;;15.80;66.80;;;;;;4989345;28;20225;-50
2023/10/04 00:54:44;;;;;;;7.35;2.08;;;15.80;67.10;;;;;;4987427;28;20062;-52
2023/10/04 00:57:23;;;;;;;3.35;1.92;;;15.80;67.60;;;;;;4991116;28;20047;-52
2023/10/04 01:00:09;;;;;;;10.65;2.22;;;15.80;67.50;;;;;;4991134;28;20058;-53
2023/10/04 01:02:47;;;;;;;5.18;2.10;;;15.70;67.30;;;;;;4983771;28;20042;-52
2023/10/04 01:05:28;;;;;;;7.82;2.22;;;15.70;67.50;;;;;;4982856;28;20071;-52
2023/10/04 01:08:15;;;;;;;5.60;1.63;;;15.70;67.70;;;;;;5003473;28;20050;-52
2023/10/04 01:11:02;;;;;;;6.25;2.03;;;15.70;67.70;;;;;;4986755;28;20057;-52
2023/10/04 01:13:36;;;;;;;7.38;1.80;;;15.70;67.80;;;;;;4981892;28;20129;-52
2023/10/04 01:16:24;;;;;;;4.18;2.05;;;15.70;68.00;;;;;;4982630;28;20046;-52
2023/10/04 01:18:56;;;;;;;4.60;2.42;;;15.60;68.50;;;;;;4986803;28;20508;-49
2023/10/04 01:21:27;;;;;;;5.28;2.03;;;15.60;68.20;;;;;;4967790;28;20050;-51
2023/10/04 01:23:58;;;;;;;6.05;2.47;;;15.60;68.40;;;;;;4985584;28;20113;-49
2023/10/04 01:26:28;;;;;;;5.55;1.90;;;15.60;68.40;;;;;;4987588;28;20042;-49
2023/10/04 01:29:02;;;;;;;5.55;2.10;;;15.60;68.50;;;;;;4982966;28;20046;-50
2023/10/04 01:32:05;;;;;;;4.95;2.33;;;15.60;68.60;;;;;;4983765;28;20089;-50
2023/10/04 01:34:44;;;;;;;4.32;1.70;;;15.60;69.20;;;;;;4972484;28;20130;-53
2023/10/04 01:37:30;;;;;;;5.13;2.28;;;15.60;68.90;;;;;;4995248;28;20049;-52
2023/10/04 01:40:07;;;;;;;6.57;2.25;;;15.60;68.80;;;;;;4984756;28;20599;-52
2023/10/04 01:42:45;;;;;;;3.20;1.70;;;15.70;69.10;;;;;;4983566;28;20049;-52
2023/10/04 01:45:29;;;;;;;5.60;2.08;;;15.70;69.10;;;;;;4999541;28;20059;-52
2023/10/04 01:48:10;;;;;;;6.03;2.20;;;15.70;69.40;;;;;;4983594;28;20062;-49
2023/10/04 01:50:46;;;;;;;5.18;2.00;;;15.70;69.30;;;;;;4981848;28;20125;-49
2023/10/04 01:53:34;;;;;;;6.68;2.10;;;15.80;69.30;;;;;;4982392;28;20070;-50
2023/10/04 01:56:15;;;;;;;7.10;2.13;;;15.80;69.40;;;;;;4985076;28;20089;-50
2023/10/04 01:58:48;;;;;;;5.45;1.92;;;15.80;69.30;;;;;;4980676;28;20062;-49
2023/10/04 02:01:36;;;;;;;7.75;3.33;;;15.80;69.20;;;;;;4987688;28;20042;-49
2023/10/04 02:04:06;;;;;;;7.35;2.90;;;15.80;69.50;;;;;;4986800;28;20386;-49
2023/10/04 02:06:41;;;;;;;2.58;1.83;;;15.80;69.30;;;;;;4992610;28;20034;-52
2023/10/04 02:09:20;;;;;;;7.68;3.05;;;15.80;69.30;;;;;;4988238;28;20440;-50
2023/10/04 02:12:04;;;;;;;6.00;1.95;;;15.80;69.40;;;;;;4984054;28;20046;-49
2023/10/04 02:14:35;;;;;;;5.90;2.25;;;15.90;69.30;;;;;;4980710;28;20035;-52
2023/10/04 02:17:08;;;;;;;5.65;2.25;;;15.90;69.40;;;;;;4990293;28;20085;-50
2023/10/04 02:19:49;;;;;;;;;;;;;;;;;;;;;
2023/10/04 02:22:32;;;;;;;5.95;2.72;;;15.90;69.50;;;;;;4983157;28;20053;-51
2023/10/04 02:25:13;;;;;;;4.43;1.90;;;15.90;69.40;;;;;;4982064;28;20595;-52
2023/10/04 02:27:59;;;;;;;6.22;2.45;;;15.90;69.40;;;;;;4987696;28;20851;-51
2023/10/04 02:30:38;;;;;;;8.85;2.70;;;15.90;69.60;;;;;;4982423;28;20043;-51
2023/10/04 02:33:34;;;;;;;6.55;2.17;;;15.90;69.40;;;;;;4988964;28;20046;-49
2023/10/04 02:36:08;;;;;;;5.68;2.20;;;15.90;69.50;;;;;;4987109;28;20484;-50
2023/10/04 02:38:37;;;;;;;4.63;1.70;;;16.00;69.60;;;;;;4988903;28;20113;-49
2023/10/04 02:41:12;;;;;;;4.50;2.00;;;15.90;69.50;;;;;;4987551;28;20062;-51
2023/10/04 02:43:47;;;;;;;7.35;2.05;;;15.90;69.40;;;;;;4989925;28;20381;-49
2023/10/04 02:46:26;;;;;;;5.50;2.00;;;15.90;69.50;;;;;;4990377;28;20038;-50
2023/10/04 02:49:11;;;;;;;3.90;2.53;;;15.90;69.50;;;;;;4985826;28;20097;-49
2023/10/04 02:51:51;;;;;;;5.50;2.35;;;15.90;69.60;;;;;;4986323;28;20049;-51
2023/10/04 02:54:41;;;;;;;4.20;1.90;;;15.90;69.40;;;;;;4987175;28;20133;-50
2023/10/04 02:57:19;;;;;;;3.67;1.55;;;15.90;69.50;;;;;;4989579;28;20038;-50
2023/10/04 02:59:54;;;;;;;;;;;15.90;69.60;;;;;;4990348;28;20066;-50
2023/10/04 03:02:34;;;;;;;8.98;2.38;;;15.90;69.70;;;;;;4989030;28;19949;-52
2023/10/04 03:05:20;;;;;;;1.73;1.55;;;15.90;69.30;;;;;;4989473;28;20608;-53
2023/10/04 03:08:22;;;;;;;4.50;2.30;;;15.90;69.40;;;;;;4973809;28;20047;-49
2023/10/04 03:11:07;;;;;;;4.53;1.65;;;15.90;69.80;;;;;;4985634;28;20039;-52
2023/10/04 03:13:42;;;;;;;4.00;1.85;;;15.90;69.50;;;;;;4988020;28;20580;-49
2023/10/04 03:16:14;;;;;;;6.03;1.90;;;15.90;69.80;;;;;;4989894;28;20050;-50
2023/10/04 03:18:53;;;;;;;6.45;1.95;;;15.80;69.80;;;;;;4987493;28;20120;-49
2023/10/04 03:21:22;;;;;;;4.57;2.03;;;15.80;69.80;;;;;;4986198;28;20046;-52
2023/10/04 03:24:11;;;;;;;7.45;2.17;;;15.80;70.00;;;;;;4988114;28;20035;-52
2023/10/04 03:26:44;;;;;;;3.80;1.02;;;15.80;70.00;;;;;;4990862;28;20030;-50
2023/10/04 03:29:22;;;;;;;6.35;1.65;;;15.80;69.90;;;;;;4986540;28;20042;-51
2023/10/04 03:32:03;;;;;;;5.85;1.98;;;15.80;70.10;;;;;;4985236;28;20038;-51
2023/10/04 03:34:56;;;;;;;6.20;1.55;;;15.80;70.00;;;;;;4987661;28;20536;-49
2023/10/04 03:37:54;;;;;;;10.02;2.15;;;15.80;69.90;;;;;;4985675;28;20172;-49
2023/10/04 03:40:34;;;;;;;6.05;1.83;;;15.80;70.00;;;;;;4992734;28;20042;-52
2023/10/04 03:43:10;;;;;;;6.18;2.50;;;15.80;70.10;;;;;;4998919;28;20057;-50
2023/10/04 03:45:47;;;;;;;6.93;1.80;;;15.70;70.00;;;;;;4988878;28;20089;-49
2023/10/04 03:48:26;;;;;;;4.90;1.85;;;15.70;70.10;;;;;;4986341;28;20046;-49
2023/10/04 03:51:04;;;;;;;5.88;1.75;;;15.70;70.10;;;;;;4987997;28;20621;-52
2023/10/04 03:53:50;;;;;;;7.45;2.67;;;15.70;70.10;;;;;;4988088;28;20057;-49
2023/10/04 03:56:47;;;;;;;8.35;2.03;;;15.70;70.10;;;;;;4987367;28;20505;-49
2023/10/04 03:59:29;;;;;;;5.03;1.63;;;15.70;70.60;;;;;;4986579;28;20066;-51
2023/10/04 04:02:11;;;;;;;4.47;2.13;;;15.60;70.00;;;;;;4989632;28;20042;-52
2023/10/04 04:04:52;;;;;;;4.60;1.70;;;15.60;70.10;;;;;;4985280;28;20035;-49
2023/10/04 04:07:39;;;;;;;7.00;2.33;;;15.60;70.20;;;;;;4985275;28;20133;-48
2023/10/04 04:10:19;;;;;;;6.57;2.75;;;15.50;70.30;;;;;;4984748;28;20051;-50
2023/10/04 04:13:01;;;;;;;9.23;1.70;;;15.50;70.10;;;;;;4986569;28;20038;-51
2023/10/04 04:15:35;;;;;;;7.10;1.58;;;15.50;70.30;;;;;;4988067;28;20042;-52
2023/10/04 04:18:22;;;;;;;5.72;1.73;;;15.40;70.30;;;;;;4985402;28;20476;-52
2023/10/04 04:21:03;;;;;;;5.00;1.85;;;15.40;70.40;;;;;;4994653;28;20038;-50
2023/10/04 04:23:41;;;;;;;8.73;3.05;;;15.40;70.50;;;;;;4989154;28;20042;-50
2023/10/04 04:26:39;;;;;;;;;;;;;;;;;;;;;
2023/10/04 04:29:23;;;;;;;4.93;1.70;;;15.40;70.70;;;;;;4988921;28;19925;-53
2023/10/04 04:32:08;;;;;;;6.88;1.85;;;15.30;70.20;;;;;;4985689;28;20050;-50
2023/10/04 04:34:35;;;;;;;7.35;2.17;;;15.30;70.40;;;;;;4987576;28;20034;-52
2023/10/04 04:37:29;;;;;;;7.00;2.67;;;15.20;70.60;;;;;;4986139;28;20046;-53
2023/10/04 04:40:06;;;;;;;4.68;1.95;;;15.20;70.60;;;;;;4984493;28;20102;-53
2023/10/04 04:42:47;;;;;;;6.43;2.83;;;15.20;70.90;;;;;;4985260;28;20052;-53
2023/10/04 04:45:19;;;;;;;6.55;1.80;;;15.10;70.90;;;;;;4989578;28;20041;-52
2023/10/04 04:47:58;;;;;;;4.47;2.15;;;15.10;71.00;;;;;;4992758;28;20043;-50
2023/10/04 04:50:35;;;;;;;4.68;2.45;;;15.10;71.20;;;;;;4988889;28;20053;-53
2023/10/04 04:53:14;;;;;;;9.40;2.70;;;15.10;71.10;;;;;;4990029;28;20042;-50
2023/10/04 04:55:50;;;;;;;5.88;2.50;;;15.10;71.30;;;;;;4991295;28;20049;-51
2023/10/04 04:58:30;;;;;;;4.07;2.05;;;15.00;71.30;;;;;;4988156;28;20047;-51
2023/10/04 05:01:08;;;;;;;6.82;2.47;;;15.00;71.30;;;;;;4976917;28;20042;-52
2023/10/04 05:03:51;;;;;;;;;;;;;;;;;;;;;
2023/10/04 05:06:51;;;;;;;4.57;1.70;;;15.00;71.40;;;;;;4984746;28;20041;-53
2023/10/04 05:09:24;;;;;;;4.75;1.88;;;15.00;71.60;;;;;;4986942;28;20062;-51
2023/10/04 05:12:01;;;;;;;7.35;2.00;;;14.90;71.30;;;;;;4985516;28;20045;-50
2023/10/04 05:14:44;;;;;;;6.60;2.40;;;14.90;71.40;;;;;;4991187;28;20054;-50
2023/10/04 05:17:30;;;;;;;4.80;1.63;;;14.90;71.60;;;;;;4983916;28;20098;-53
2023/10/04 05:20:00;;;;;;;10.85;2.20;;;14.90;71.40;;;;;;4986618;28;20809;-52
2023/10/04 05:22:36;;;;;;;6.43;2.10;;;14.90;71.40;;;;;;4985660;28;20508;-52
2023/10/04 05:25:09;;;;;;;8.50;2.58;;;14.80;71.60;;;;;;4991005;28;20503;-52
2023/10/04 05:27:38;;;;;;;8.95;2.22;;;14.80;71.50;;;;;;4987221;28;20166;-49
2023/10/04 05:30:18;;;;;;;5.72;2.10;;;14.80;71.70;;;;;;4989711;28;20069;-50
2023/10/04 05:32:53;;;;;;;5.20;1.83;;;14.80;71.60;;;;;;4988288;28;20042;-53
2023/10/04 05:35:28;;;;;;;5.15;2.50;;;14.80;71.70;;;;;;4991459;28;20054;-49
2023/10/04 05:38:10;;;;;;;11.60;3.58;;;14.80;71.70;;;;;;4984681;28;20152;-52
2023/10/04 05:40:56;;;;;;;6.55;2.28;;;14.80;71.70;;;;;;4981854;28;20543;-51
2023/10/04 05:43:32;;;;;;;4.05;2.53;;;14.80;71.70;;;;;;4980356;28;20050;-53
2023/10/04 05:46:04;;;;;;;4.53;2.08;;;14.70;71.60;;;;;;4991405;28;20089;-50
2023/10/04 05:48:31;;;;;;;8.30;2.53;;;14.70;71.60;;;;;;4987288;28;20048;-49
2023/10/04 05:51:19;;;;;;;4.43;1.90;;;14.70;71.80;;;;;;4991237;28;20460;-52
2023/10/04 05:53:51;;;;;;;5.68;2.30;;;14.70;72.10;;;;;;4988833;28;20548;-50
2023/10/04 05:56:39;;;;;;;6.63;2.33;;;14.70;71.90;;;;;;4991322;28;20121;-51
2023/10/04 05:59:12;;;;;;;6.63;2.20;;;14.70;72.10;;;;;;4986176;28;20068;-53
2023/10/04 06:01:50;;;;;;;4.60;1.80;;;14.70;72.10;;;;;;4990359;28;20121;-51
2023/10/04 06:04:19;;;;;;;7.63;2.58;;;14.70;72.10;;;;;;4985078;28;20105;-49
2023/10/04 06:06:54;;;;;;;8.93;2.93;;;14.60;72.00;;;;;;4990192;28;20646;-50
2023/10/04 06:09:34;;;;;;;10.00;2.65;;;14.70;72.30;;;;;;4987253;28;20503;-49
2023/10/04 06:12:04;;;;;;;4.68;2.65;;;14.60;72.30;;;;;;4987174;28;20081;-53
2023/10/04 06:14:35;;;;;;;9.57;1.83;;;14.60;72.30;;;;;;4992024;28;20097;-51
2023/10/04 06:17:12;;;;;;;8.65;2.80;;;14.60;72.30;;;;;;4989917;28;20054;-53
2023/10/04 06:19:45;;;;;;;6.63;3.40;;;14.60;72.20;;;;;;4989147;28;20077;-49
2023/10/04 06:22:28;;;;;;;6.30;3.92;;;14.60;72.30;;;;;;4992537;28;20053;-49
2023/10/04 06:24:57;;;;;;;9.63;4.13;;;14.70;72.50;;;;;;4986764;28;20042;-51
2023/10/04 06:27:33;;;;;;;8.18;5.28;;;14.60;72.30;;;;;;4987599;28;20049;-51
2023/10/04 06:30:20;;;;;;;11.43;5.90;;;14.70;72.30;;;;;;4990705;28;20069;-47
2023/10/04 06:32:55;;;;;;;10.80;5.78;;;14.70;72.70;;;;;;4986029;28;20396;-51
2023/10/04 06:35:43;;;;;;;11.77;5.93;;;14.70;72.40;;;;;;4988810;28;20049;-51
2023/10/04 06:38:20;;;;;;;13.27;5.93;;;14.70;72.60;;;;;;4990319;28;20050;-48
2023/10/04 06:40:49;;;;;;;10.90;5.65;;;14.70;72.50;;;;;;4981663;28;20050;-53
2023/10/04 06:43:27;;;;;;;8.20;5.80;;;14.70;72.50;;;;;;4990513;28;20138;-50
2023/10/04 06:46:03;;;;;;;13.63;6.10;;;14.70;72.50;;;;;;4991056;28;20057;-49
2023/10/04 06:48:45;;;;;;;9.98;5.32;;;14.70;72.50;;;;;;4983744;28;20045;-47
2023/10/04 06:51:18;;;;;;;10.15;4.68;;;14.80;72.60;;;;;;4988042;28;20086;-51
2023/10/04 06:54:06;;;;;;;7.88;4.05;;;14.80;72.40;;;;;;4990612;28;20539;-48
2023/10/04 06:56:35;;;;;;;9.77;4.90;;;14.80;72.40;;;;;;4990774;28;20121;-50
2023/10/04 06:59:12;;;;;;;11.93;5.25;;;14.80;72.40;;;;;;4985739;28;20659;-49
2023/10/04 07:01:44;;;;;;;13.95;4.95;;;14.80;72.50;;;;;;4991812;28;20069;-53
2023/10/04 07:04:19;;;;;;;7.85;3.60;;;14.90;72.50;;;;;;4990706;28;20046;-50
2023/10/04 07:06:54;;;;;;;7.85;4.10;;;14.90;72.60;;;;;;4990743;28;20042;-51
2023/10/04 07:09:31;;;;;;;7.72;3.30;;;14.90;72.40;;;;;;4984947;28;20049;-53
2023/10/04 07:12:10;;;;;;;7.18;2.78;;;15.00;72.60;;;;;;4985863;28;20042;-53
2023/10/04 07:14:50;;;;;;;11.63;3.60;;;15.00;72.80;;;;;;4983361;28;20635;-52
2023/10/04 07:17:55;;;;;;;4.72;2.70;;;15.00;72.50;;;;;;4982881;28;20121;-52
2023/10/04 07:20:30;;;;;;;7.97;3.03;;;15.10;72.70;;;;;;4988344;28;20045;-52
2023/10/04 07:22:58;;;;;;;8.75;3.13;;;15.10;72.40;;;;;;4991304;28;20108;-53
2023/10/04 07:25:34;;;;;;;6.40;2.55;;;15.10;72.40;;;;;;4989782;28;20073;-51
2023/10/04 07:28:38;;;;;;;6.40;2.67;;;15.10;72.40;;;;;;4983038;28;20084;-51
2023/10/04 07:31:10;;;;;;;6.90;2.80;;;15.20;72.40;;;;;;4990683;28;20133;-52
2023/10/04 07:33:49;;;;;;;7.28;2.67;;;15.20;72.40;;;;;;4990439;28;20046;-53
2023/10/04 07:36:25;;;;;;;7.30;2.08;;;15.20;72.50;;;;;;4984444;28;20069;-51
2023/10/04 07:38:58;;;;;;;8.07;2.63;;;15.30;72.40;;;;;;4980449;28;20062;-53
2023/10/04 07:41:36;;;;;;;7.30;3.13;;;15.30;72.50;;;;;;4981067;28;20042;-51
2023/10/04 07:44:10;;;;;;;4.70;2.85;;;15.40;72.70;;;;;;4989496;28;20798;-52
2023/10/04 07:46:51;;;;;;;9.18;2.88;;;15.40;72.50;;;;;;4990026;28;20105;-52
2023/10/04 07:49:21;;;;;;;8.23;2.13;;;15.50;72.70;;;;;;4984240;28;20421;-50
2023/10/04 07:51:57;;;;;;;6.75;2.30;;;15.50;72.20;;;;;;4991119;28;20663;-53
2023/10/04 07:54:41;;;;;;;10.90;2.83;;;15.50;72.10;;;;;;4986682;28;20137;-49
2023/10/04 07:57:34;;;;;;;6.15;2.15;;;15.60;72.40;;;;;;4986257;28;20054;-52
2023/10/04 08:00:23;;;;;;;8.15;2.60;;;15.60;72.20;;;;;;4981724;28;20073;-53
2023/10/04 08:02:57;;;;;;;8.00;3.38;;;15.70;72.20;;;;;;4984929;28;20049;-49
2023/10/04 08:05:39;;;;;;;7.72;3.10;;;15.70;72.20;;;;;;4982280;28;20050;-49
2023/10/04 08:08:07;;;;;;;10.10;2.63;;;15.80;72.00;;;;;;4987360;28;20042;-51
2023/10/04 08:10:57;;;;;;;8.52;2.95;;;15.80;72.00;;;;;;4985420;28;20731;-51
2023/10/04 08:13:31;;;;;;;4.15;1.95;;;15.90;71.90;;;;;;4989191;28;20514;-53
2023/10/04 08:16:31;;;;;;;8.98;2.08;;;15.90;71.90;;;;;;4984537;28;20042;-52
2023/10/04 08:19:04;;;;;;;7.37;2.23;;;16.00;71.80;;;;;;4981248;28;20394;-49
2023/10/04 08:21:38;;;;;;;5.50;2.55;;;16.10;71.80;;;;;;4989189;28;20499;-51
2023/10/04 08:24:21;;;;;;;7.32;2.40;;;16.10;71.90;;;;;;4983402;28;20453;-53
2023/10/04 08:27:00;;;;;;;6.85;2.75;;;16.20;71.60;;;;;;4984826;28;20402;-51
2023/10/04 08:29:49;;;;;;;8.75;2.88;;;16.30;71.60;;;;;;4985954;28;20126;-53
2023/10/04 08:32:29;;;;;;;6.30;2.58;;;16.30;71.40;;;;;;4987700;28;20382;-53
2023/10/04 08:35:28;;;;;;;7.70;2.40;;;16.40;71.30;;;;;;4980044;28;20131;-53
2023/10/04 08:38:11;;;;;;;6.10;1.92;;;16.50;71.60;;;;;;4987263;28;20076;-53
2023/10/04 08:40:53;;;;;;;6.25;2.05;;;16.50;71.20;;;;;;4982523;28;20480;-53
2023/10/04 08:43:29;;;;;;;6.40;2.33;;;16.60;71.10;;;;;;4989576;28;20053;-53
2023/10/04 08:45:58;;;;;;;7.50;3.15;;;16.70;71.00;;;;;;4989529;28;20489;-53
2023/10/04 08:48:37;;;;;;;7.90;1.92;;;16.80;70.70;;;;;;4988743;28;20510;-53
2023/10/04 08:51:41;;;;;;;5.43;2.22;;;16.80;70.50;;;;;;4985155;28;20103;-52
2023/10/04 08:54:15;;;;;;;6.35;2.10;;;16.90;70.70;;;;;;4982765;28;20043;-52
2023/10/04 08:56:54;;;;;;;7.40;2.55;;;17.00;70.60;;;;;;4989543;28;20048;-53
2023/10/04 08:59:33;;;;;;;9.95;3.03;;;17.00;70.50;;;;;;4982592;28;20136;-53
2023/10/04 09:02:15;;;;;;;5.60;2.05;;;17.10;70.10;;;;;;4989480;28;20496;-52
2023/10/04 09:04:54;;;;;;;7.00;1.85;;;17.20;70.30;;;;;;4984463;28;20045;-53
2023/10/04 09:07:29;;;;;;;7.43;2.72;;;17.20;70.10;;;;;;4987757;28;20061;-50
2023/10/04 09:10:06;;;;;;;6.60;2.58;;;17.30;70.00;;;;;;4981609;28;20031;-53
2023/10/04 09:12:42;;;;;;;9.75;2.80;;;17.40;69.60;;;;;;4990002;28;20093;-53
2023/10/04 09:15:31;;;;;;;5.30;2.53;;;17.40;69.30;;;;;;4986682;28;20053;-53
2023/10/04 09:18:24;;;;;;;11.25;3.22;;;17.50;69.20;;;;;;4989812;28;20072;-51
2023/10/04 09:21:23;;;;;;;5.53;2.35;;;17.50;69.00;;;;;;4989590;28;20049;-49
2023/10/04 09:24:09;;;;;;;8.80;2.45;;;17.50;68.80;;;;;;4986294;28;20496;-49
2023/10/04 09:26:54;;;;;;;7.53;2.53;;;17.60;68.90;;;;;;4988668;28;20755;-53
2023/10/04 09:29:59;;;;;;;9.00;2.78;;;17.60;69.00;;;;;;4987594;28;20094;-51
2023/10/04 09:32:38;;;;;;;7.28;2.55;;;17.70;69.20;;;;;;4991742;28;20049;-50
2023/10/04 09:35:48;;;;;;;7.45;2.63;;;17.70;68.90;;;;;;4988202;28;20089;-53
2023/10/04 09:38:25;;;;;;;6.47;2.28;;;17.90;69.00;;;;;;4991213;28;20104;-52
2023/10/04 09:41:02;;;;;;;7.68;3.00;;;17.90;69.10;;;;;;4982398;28;20547;-52
2023/10/04 09:43:44;;;;;;;5.05;2.63;;;18.00;68.70;;;;;;4991907;28;20085;-53
2023/10/04 09:46:28;;;;;;;6.28;2.40;;;18.10;68.30;;;;;;4992361;28;20512;-52
2023/10/04 09:49:14;;;;;;;5.90;2.25;;;18.20;67.90;;;;;;4989578;28;20093;-53
2023/10/04 09:52:16;;;;;;;;;;;;;;;;;;;;;
2023/10/04 09:54:53;;;;;;;6.50;2.55;;;18.40;67.60;;;;;;4985342;28;20042;-51
2023/10/04 09:57:31;;;;;;;5.15;2.20;;;18.50;67.50;;;;;;4991527;28;20437;-52
2023/10/04 10:00:17;;;;;;;6.82;2.60;;;18.60;67.10;;;;;;4986252;28;20042;-52
2023/10/04 10:02:57;;;;;;;7.75;2.78;;;18.60;66.40;;;;;;4991569;28;20034;-53
2023/10/04 10:06:20;;;;;;;5.22;2.40;;;18.70;66.20;;;;;;4990221;28;20053;-52
2023/10/04 10:08:53;;;;;;;8.13;2.63;;;18.80;66.60;;;;;;4988574;28;20117;-52
2023/10/04 10:11:25;;;;;;;8.60;3.40;;;18.90;66.10;;;;;;4990581;28;20062;-53
2023/10/04 10:13:58;;;;;;;;;;;19.00;65.70;;;;;;4991797;28;20046;-50
2023/10/04 10:16:26;;;;;;;8.90;3.17;;;19.10;66.20;;;;;;4991000;28;19960;-52
2023/10/04 10:19:03;;;;;;;4.72;2.88;;;19.20;65.40;;;;;;4988837;28;20073;-53
2023/10/04 10:22:21;;;;;;;;;;;;;;;;;;;;;
2023/10/04 10:25:10;;;;;;;7.50;2.30;;;19.20;63.70;;;;;;4983993;28;20449;-50
2023/10/04 10:27:46;;;;;;;6.03;2.50;;;19.30;64.40;;;;;;4985564;28;20385;-53
2023/10/04 10:30:16;;;;;;;8.75;2.58;;;19.40;63.70;;;;;;4985013;28;20046;-50
2023/10/04 10:32:58;;;;;;;6.32;2.70;;;19.40;63.70;;;;;;4990856;28;20774;-50
2023/10/04 10:36:18;;;;;;;7.27;2.60;;;19.50;63.40;;;;;;4986141;28;20416;-54
2023/10/04 10:38:58;;;;;;;5.22;2.00;;;19.60;63.20;;;;;;4984210;28;20313;-53
2023/10/04 10:41:55;;;;;;;4.60;2.17;;;19.60;63.30;;;;;;4986056;28;20050;-53
2023/10/04 10:44:42;;;;;;;6.95;2.80;;;19.70;63.00;;;;;;4989409;28;20112;-54
2023/10/04 10:47:33;;;;;;;8.82;3.00;;;19.80;62.80;;;;;;4990313;28;20044;-50
2023/10/04 10:50:52;;;;;;;7.38;3.05;;;19.80;61.60;;;;;;4979913;28;20051;-53
2023/10/04 10:53:21;;;;;;;4.65;2.42;;;19.90;62.20;;;;;;4990726;28;20093;-53
2023/10/04 10:56:01;;;;;;;5.57;2.10;;;19.90;62.10;;;;;;4978251;28;20424;-53
2023/10/04 10:58:35;;;;;;;6.80;2.42;;;20.00;61.30;;;;;;4986859;28;20423;-52
2023/10/04 11:01:19;;;;;;;7.00;2.47;;;20.00;60.90;;;;;;4984319;28;20527;-53
2023/10/04 11:04:01;;;;;;;7.63;2.63;;;20.10;61.20;;;;;;4989639;28;20080;-52
2023/10/04 11:06:42;;;;;;;;;;;;;;;;;;;;;
2023/10/04 11:09:20;;;;;;;7.05;2.47;;;20.20;60.80;;;;;;4985139;28;20051;-52
2023/10/04 11:12:16;;;;;;;8.18;3.42;;;20.20;61.00;;;;;;4987559;28;20439;-54
2023/10/04 11:14:56;;;;;;;5.10;2.45;;;20.30;60.80;;;;;;4982654;28;20108;-53
2023/10/04 11:17:33;;;;;;;5.00;2.47;;;20.30;59.50;;;;;;4987843;28;20049;-53
2023/10/04 11:20:03;;;;;;;4.10;2.30;;;20.40;59.40;;;;;;4984762;28;20038;-54
2023/10/04 11:22:33;;;;;;;4.90;2.47;;;20.40;59.60;;;;;;4988217;28;20080;-53
2023/10/04 11:25:17;;;;;;;7.60;2.67;;;20.50;59.30;;;;;;4986932;28;20035;-50
2023/10/04 11:28:11;;;;;;;9.75;3.17;;;20.50;59.50;;;;;;4988659;28;20054;-52
2023/10/04 11:30:46;;;;;;;5.25;2.63;;;20.60;59.10;;;;;;4985846;28;20118;-52
2023/10/04 11:33:21;;;;;;;5.77;3.10;;;20.60;58.50;;;;;;4990017;28;20096;-53
2023/10/04 11:36:02;;;;;;;7.55;3.42;;;20.70;58.50;;;;;;4981419;28;20292;-52
2023/10/04 11:38:35;;;;;;;8.07;3.30;;;20.70;58.20;;;;;;4983700;28;20051;-53
2023/10/04 11:41:29;;;;;;;7.60;3.40;;;20.80;57.60;;;;;;4984098;28;20531;-53
2023/10/04 11:44:02;;;;;;;;;;;20.80;57.60;;;;;;4987157;28;20728;-50
2023/10/04 11:47:15;;;;;;;8.27;3.42;;;20.90;58.70;;;;;;4989296;28;19976;-53
2023/10/04 11:50:00;;;;;;;7.38;2.92;;;20.90;56.90;;;;;;4978378;28;20066;-53
2023/10/04 11:52:42;;;;;;;9.40;4.03;;;20.90;56.90;;;;;;4988115;28;20038;-53
2023/10/04 11:55:26;;;;;;;9.45;3.60;;;20.90;56.60;;;;;;4987281;28;20053;-54
2023/10/04 11:58:27;;;;;;;8.07;4.35;;;20.90;56.70;;;;;;4984716;28;20059;-52
2023/10/04 12:01:08;;;;;;;7.45;3.30;;;21.00;57.10;;;;;;4983102;28;20496;-53
2023/10/04 12:03:37;;;;;;;7.88;3.55;;;21.00;57.00;;;;;;4989461;28;20089;-51
2023/10/04 12:06:38;;;;;;;3.75;2.63;;;21.10;56.70;;;;;;4985452;28;20104;-52
2023/10/04 12:09:26;;;;;;;4.70;2.50;;;21.10;55.60;;;;;;4984947;28;20129;-53
2023/10/04 12:12:07;;;;;;;11.75;3.97;;;21.10;55.40;;;;;;4987346;28;20034;-53
2023/10/04 12:14:34;;;;;;;5.47;2.90;;;21.10;55.60;;;;;;4988973;28;20432;-53
2023/10/04 12:17:14;;;;;;;10.98;4.35;;;21.30;55.70;;;;;;4985303;28;20042;-54
2023/10/04 12:19:49;;;;;;;5.85;2.95;;;21.20;55.70;;;;;;4990319;28;20515;-54
2023/10/04 12:22:22;;;;;;;5.05;2.95;;;21.30;55.00;;;;;;4986391;28;20069;-54
2023/10/04 12:24:54;;;;;;;8.50;3.72;;;21.30;55.30;;;;;;4980777;28;20046;-54
2023/10/04 12:27:44;;;;;;;10.18;3.28;;;21.40;55.60;;;;;;4982884;28;20137;-54
2023/10/04 12:30:17;;;;;;;6.07;2.63;;;21.40;55.30;;;;;;4986377;28;20046;-53
2023/10/04 12:32:47;;;;;;;;;;;21.50;55.40;;;;;;4989529;28;20039;-54
2023/10/04 12:35:23;;;;;;;5.47;2.90;;;21.60;55.50;;;;;;4984966;28;19929;-53
2023/10/04 12:37:55;;;;;;;6.68;2.83;;;21.60;55.20;;;;;;4981638;28;20133;-53
2023/10/04 12:40:30;;;;;;;5.93;3.33;;;21.60;55.40;;;;;;4980918;28;20081;-52
2023/10/04 12:43:04;;;;;;;6.70;3.00;;;21.70;55.10;;;;;;4987870;28;20035;-53
2023/10/04 12:46:06;;;;;;;8.77;3.42;;;21.70;54.90;;;;;;4989107;28;20057;-53
2023/10/04 12:48:48;;;;;;;7.70;3.35;;;21.80;54.50;;;;;;4990997;28;20579;-53
2023/10/04 12:51:29;;;;;;;5.68;3.08;;;21.80;54.60;;;;;;4986122;28;20069;-53
2023/10/04 12:54:08;;;;;;;7.28;3.08;;;21.90;54.60;;;;;;4986891;28;20044;-53
2023/10/04 12:56:46;;;;;;;4.00;2.45;;;21.80;54.40;;;;;;4991307;28;20058;-54
2023/10/04 12:59:22;;;;;;;4.90;2.60;;;21.90;54.40;;;;;;4991010;28;20100;-51
2023/10/04 13:02:15;;;;;;;8.05;3.60;;;21.90;54.60;;;;;;4990999;28;20065;-54
2023/10/04 13:04:47;;;;;;;7.40;3.30;;;21.90;53.90;;;;;;4985922;28;20046;-53
2023/10/04 13:07:15;;;;;;;7.80;3.35;;;21.90;53.50;;;;;;4992729;28;20121;-52
2023/10/04 13:10:00;;;;;;;7.03;2.80;;;22.00;53.50;;;;;;4991359;28;20035;-54
2023/10/04 13:12:48;;;;;;;6.53;3.38;;;22.00;53.20;;;;;;4992836;28;20034;-53
2023/10/04 13:15:17;;;;;;;6.55;3.15;;;21.90;53.00;;;;;;4992761;28;20493;-50
2023/10/04 13:18:17;;;;;;;9.85;3.95;;;21.90;53.20;;;;;;4990210;28;20046;-52
2023/10/04 13:20:55;;;;;;;5.40;2.65;;;21.90;53.00;;;;;;4993582;28;20497;-52
2023/10/04 13:23:55;;;;;;;7.28;2.80;;;21.90;53.00;;;;;;4991540;28;20042;-51
2023/10/04 13:26:30;;;;;;;6.32;2.67;;;21.80;53.10;;;;;;4987684;28;20066;-52
2023/10/04 13:29:16;;;;;;;7.35;3.17;;;21.70;53.60;;;;;;4993081;28;20089;-52
2023/10/04 13:31:50;;;;;;;6.88;3.15;;;21.70;53.50;;;;;;4992302;28;20552;-52
2023/10/04 13:34:26;;;;;;;5.20;2.40;;;21.60;53.90;;;;;;4988334;28;20045;-51
2023/10/04 13:37:04;;;;;;;6.55;2.80;;;21.60;53.60;;;;;;4989262;28;20089;-53
2023/10/04 13:39:55;;;;;;;5.20;2.65;;;21.60;53.80;;;;;;4983597;28;20050;-53
2023/10/04 13:42:31;;;;;;;6.85;3.88;;;21.60;53.80;;;;;;4990457;28;20062;-54
2023/10/04 13:45:10;;;;;;;5.95;2.58;;;21.60;53.80;;;;;;4986212;28;20045;-54
2023/10/04 13:47:41;;;;;;;6.30;2.70;;;21.50;53.90;;;;;;4987106;28;20074;-53
2023/10/04 13:50:26;;;;;;;4.50;2.63;;;21.60;54.10;;;;;;4992015;28;20630;-53
2023/10/04 13:53:06;;;;;;;5.65;2.15;;;21.50;54.10;;;;;;4982498;28;20069;-54
2023/10/04 13:55:39;;;;;;;5.28;2.80;;;21.50;53.90;;;;;;4984801;28;20176;-51
2023/10/04 13:58:18;;;;;;;6.93;3.35;;;21.40;54.10;;;;;;4991668;28;20042;-52
2023/10/04 14:01:02;;;;;;;6.28;3.00;;;21.40;54.10;;;;;;4991033;28;20050;-51
2023/10/04 14:03:44;;;;;;;5.50;2.50;;;21.40;53.90;;;;;;4989474;28;20113;-52
2023/10/04 14:06:21;;;;;;;6.57;2.70;;;21.40;54.50;;;;;;4985704;28;20047;-50
2023/10/04 14:09:10;;;;;;;5.15;2.70;;;21.50;54.70;;;;;;4982534;28;20511;-51